Time;durP1;ratioP1;P1;durP2;ratioP2;P2;SDS_P1;SDS_P2;PMS_P1;PMS_P2;Temp;Humidity;BMP_temperature;BMP_pressure;BME280_temperature;BME280_humidity;BME280_pressure;Samples;Min_cycle;Max_cycle;Signal;HPM_P1;HPM_P2
2021/11/23 00:00:31;;;;;;;6.10;3.53;;;;;;;6.43;49.02;98985.25;8218766;28;20237;-84
2021/11/23 00:04:34;;;;;;;4.43;3.80;;;;;;;6.46;48.43;98990.38;8245860;28;20245;-84
2021/11/23 00:08:40;;;;;;;4.03;3.50;;;;;;;6.45;49.00;98986.09;8249629;28;20246;-84
2021/11/23 00:12:43;;;;;;;4.63;3.47;;;;;;;6.33;48.81;98991.38;8249891;28;20411;-83
2021/11/23 00:17:06;;;;;;;5.47;4.20;;;;;;;6.45;48.96;98991.22;8249670;28;20233;-83
2021/11/23 00:21:09;;;;;;;5.70;4.20;;;;;;;6.42;48.41;98993.84;8249755;28;20289;-83
2021/11/23 00:25:14;;;;;;;5.97;4.03;;;;;;;6.28;48.83;98996.56;8250051;28;20244;-83
2021/11/23 00:29:17;;;;;;;4.10;3.70;;;;;;;6.30;48.71;98997.41;8256167;28;20566;-84
2021/11/23 00:33:20;;;;;;;5.67;4.40;;;;;;;6.33;48.66;98996.53;8256196;28;20245;-82
2021/11/23 00:37:23;;;;;;;4.90;4.10;;;;;;;6.20;49.06;98991.50;8255712;28;20249;-83
2021/11/23 00:41:27;;;;;;;8.57;3.80;;;;;;;6.19;48.67;98996.69;8252991;28;20230;-83
2021/11/23 00:45:31;;;;;;;5.37;4.10;;;;;;;6.18;48.71;99000.09;8255669;28;20245;-82
2021/11/23 00:49:34;;;;;;;4.77;4.10;;;;;;;6.15;48.87;99002.69;8255916;28;20245;-82
2021/11/23 00:53:38;;;;;;;5.73;3.83;;;;;;;6.34;48.52;98996.53;8255563;28;20245;-83
2021/11/23 00:57:44;;;;;;;6.90;3.93;;;;;;;6.18;48.55;98993.22;8255526;28;20481;-82
2021/11/23 01:01:47;;;;;;;4.90;3.77;;;;;;;6.19;48.46;98992.38;8255388;28;20532;-83
2021/11/23 01:05:50;;;;;;;4.33;3.93;;;;;;;6.05;48.21;98996.78;8253739;28;20246;-81
2021/11/23 01:09:53;;;;;;;4.07;3.67;;;;;;;5.99;48.98;98994.28;8254845;28;20238;-81
2021/11/23 01:13:59;;;;;;;4.67;3.53;;;;;;;5.96;48.89;98990.03;8254829;28;20292;-82
2021/11/23 01:18:02;;;;;;;5.07;3.50;;;;;;;6.04;48.98;98992.53;8255041;28;20273;-81
2021/11/23 01:22:05;;;;;;;3.63;3.33;;;;;;;6.05;48.84;98997.66;8254502;28;20393;-81
2021/11/23 01:26:09;;;;;;;4.40;4.00;;;;;;;6.00;49.12;98996.00;8254587;28;20242;-81
2021/11/23 01:30:14;;;;;;;4.30;3.90;;;;;;;5.88;48.92;99000.38;8254912;28;20403;-81
2021/11/23 01:34:19;;;;;;;4.90;3.53;;;;;;;5.87;48.83;99001.22;8254515;28;20241;-81
2021/11/23 01:38:22;;;;;;;5.97;4.37;;;;;;;5.91;48.69;98999.47;8253291;28;20269;-81
2021/11/23 01:42:25;;;;;;;11.83;8.47;;;;;;;5.95;48.22;99008.88;8254861;28;20234;-81
2021/11/23 01:46:30;;;;;;;6.07;5.40;;;;;;;5.84;48.79;99013.25;8255877;28;20206;-81
2021/11/23 01:50:33;;;;;;;5.77;4.50;;;;;;;5.68;48.88;99020.22;8253590;28;20548;-82
2021/11/23 01:54:36;;;;;;;5.70;5.00;;;;;;;5.69;49.26;99019.34;8253799;28;20316;-82
2021/11/23 01:58:39;;;;;;;6.90;5.20;;;;;;;5.70;49.27;99020.22;8253479;28;20245;-82
2021/11/23 02:02:44;;;;;;;7.43;4.73;;;;;;;5.64;49.02;99014.25;8253402;28;20242;-82
2021/11/23 02:06:47;;;;;;;5.87;4.67;;;;;;;5.76;48.72;99009.88;8252954;28;20242;-82
2021/11/23 02:10:50;;;;;;;6.80;5.30;;;;;;;5.68;48.72;99013.38;8253165;28;20242;-82
2021/11/23 02:14:53;;;;;;;8.00;5.07;;;;;;;5.76;48.52;99007.31;8253149;28;20234;-81
2021/11/23 02:18:58;;;;;;;9.30;5.60;;;;;;;5.47;48.53;99004.09;8252923;28;20238;-82
2021/11/23 02:23:02;;;;;;;6.67;5.40;;;;;;;5.47;49.12;99000.69;8252885;28;20240;-82
2021/11/23 02:27:06;;;;;;;7.60;5.40;;;;;;;5.51;48.49;98998.97;8220331;28;20246;-82
2021/11/23 02:31:09;;;;;;;6.80;5.60;;;;;;;5.54;48.46;98998.91;8220509;28;20258;-82
2021/11/23 02:35:13;;;;;;;7.73;4.77;;;;;;;5.49;48.39;98997.22;8220382;28;20235;-81
2021/11/23 02:39:17;;;;;;;5.83;4.83;;;;;;;5.42;48.76;98998.13;8220143;28;20238;-80
2021/11/23 02:43:21;;;;;;;5.03;4.53;;;;;;;5.38;48.67;98986.19;8220335;28;20235;-81
2021/11/23 02:47:24;;;;;;;7.20;5.27;;;;;;;5.32;49.11;98990.53;8220583;28;20230;-81
2021/11/23 02:51:28;;;;;;;8.70;4.87;;;;;;;5.37;48.99;98987.06;8220112;28;20230;-81
2021/11/23 02:55:35;;;;;;;6.73;4.93;;;;;;;5.31;49.30;98991.38;8219650;28;20237;-81
2021/11/23 02:59:39;;;;;;;5.17;4.67;;;;;;;5.35;49.49;98991.38;8219734;28;20239;-81
2021/11/23 03:03:42;;;;;;;5.20;4.47;;;;;;;5.31;49.66;98993.94;8219888;28;20238;-81
2021/11/23 03:07:45;;;;;;;4.97;4.00;;;;;;;5.32;49.39;99000.81;8219385;28;20242;-81
2021/11/23 03:11:50;;;;;;;6.47;4.60;;;;;;;5.17;49.44;98992.31;8219584;28;20242;-81
2021/11/23 03:15:53;;;;;;;5.17;4.60;;;;;;;5.26;49.18;98997.41;8219586;28;20245;-82
2021/11/23 03:19:56;;;;;;;8.60;5.40;;;;;;;5.31;48.97;98983.66;8218748;28;20235;-81
2021/11/23 03:23:59;;;;;;;5.80;4.60;;;;;;;5.34;48.79;98999.91;8218750;28;20234;-82
2021/11/23 03:28:04;;;;;;;5.03;4.63;;;;;;;5.32;49.34;98996.50;8218757;28;20249;-82
2021/11/23 03:32:09;;;;;;;5.37;4.80;;;;;;;5.33;49.02;98985.38;8218221;28;20241;-83
2021/11/23 03:36:12;;;;;;;5.53;4.70;;;;;;;5.32;48.95;99000.81;8218452;28;20231;-85
2021/11/23 03:40:15;;;;;;;6.47;5.20;;;;;;;5.34;48.61;98999.91;8217967;28;20438;-83
2021/11/23 03:44:19;;;;;;;5.50;4.97;;;;;;;5.18;48.82;99004.31;8218104;28;20410;-83
2021/11/23 03:48:22;;;;;;;5.03;4.53;;;;;;;5.26;48.95;98999.13;8218309;28;20235;-84
2021/11/23 03:52:25;;;;;;;6.57;4.83;;;;;;;5.12;48.68;98995.78;8218433;28;20261;-82
2021/11/23 03:56:29;;;;;;;6.67;4.73;;;;;;;5.13;48.94;99005.19;8218064;28;20245;-82
2021/11/23 04:00:33;;;;;;;5.57;4.97;;;;;;;5.12;48.86;99006.88;8217623;28;20241;-83
2021/11/23 04:04:36;;;;;;;4.83;4.43;;;;;;;5.20;48.56;99017.16;8217799;28;20350;-82
2021/11/23 04:08:39;;;;;;;6.07;4.60;;;;;;;5.13;48.92;99010.34;8218094;28;20557;-82
2021/11/23 04:12:42;;;;;;;5.00;4.50;;;;;;;5.13;48.96;99015.47;8218026;28;20239;-82
2021/11/23 04:16:47;;;;;;;5.57;4.60;;;;;;;5.19;48.48;99020.56;8217885;28;20234;-82
2021/11/23 04:20:50;;;;;;;5.50;4.50;;;;;;;5.05;49.00;99011.22;8217802;28;20239;-82
2021/11/23 04:24:56;;;;;;;6.97;4.97;;;;;;;5.03;48.64;99014.66;8218028;28;20426;-82
2021/11/23 04:28:59;;;;;;;5.50;4.73;;;;;;;4.85;49.19;99011.31;8217631;28;20266;-82
2021/11/23 04:33:03;;;;;;;5.30;4.70;;;;;;;4.84;48.79;99014.75;8217953;28;20238;-82
2021/11/23 04:37:07;;;;;;;5.90;5.03;;;;;;;4.95;48.26;99003.56;8217327;28;20298;-83
2021/11/23 04:41:10;;;;;;;5.23;4.73;;;;;;;4.79;48.49;99001.06;8217734;28;20235;-82
2021/11/23 04:45:14;;;;;;;5.97;4.97;;;;;;;4.80;48.91;98992.53;8216948;28;20234;-83
2021/11/23 04:49:22;;;;;;;6.17;5.17;;;;;;;4.82;48.11;98995.94;8217103;28;20241;-83
2021/11/23 04:53:25;;;;;;;5.93;4.70;;;;;;;4.88;48.33;99006.16;8217087;28;20242;-84
2021/11/23 04:57:28;;;;;;;5.77;4.67;;;;;;;4.84;48.55;99011.34;8217470;28;20428;-83
2021/11/23 05:01:31;;;;;;;7.67;5.07;;;;;;;4.76;49.11;99016.50;8217298;28;20538;-82
2021/11/23 05:05:36;;;;;;;7.17;5.00;;;;;;;4.67;48.81;99014.81;8217104;28;20243;-83
2021/11/23 05:09:39;;;;;;;6.90;5.00;;;;;;;4.67;48.59;99016.53;8217210;28;20251;-82
2021/11/23 05:13:43;;;;;;;6.17;5.00;;;;;;;4.78;48.76;99024.16;8219092;28;20231;-84
2021/11/23 05:17:46;;;;;;;5.50;5.00;;;;;;;4.83;48.66;99028.44;8222537;28;20422;-85
2021/11/23 05:21:51;;;;;;;5.40;4.90;;;;;;;4.77;49.18;99032.75;8222455;28;20235;-83
2021/11/23 05:25:56;;;;;;;6.43;5.27;;;;;;;4.78;48.98;99029.31;8222671;28;20566;-84
2021/11/23 05:30:00;;;;;;;5.07;4.57;;;;;;;4.61;48.65;99026.81;8222565;28;20250;-83
2021/11/23 05:34:03;;;;;;;5.40;4.63;;;;;;;4.65;48.62;99028.53;8222026;28;20391;-82
2021/11/23 05:38:11;;;;;;;6.30;5.43;;;;;;;4.49;48.45;99050.78;8246463;28;20525;-81
2021/11/23 05:42:14;;;;;;;7.10;5.70;;;;;;;4.47;48.83;99040.56;8253617;28;20426;-83
2021/11/23 05:46:18;;;;;;;5.83;5.20;;;;;;;4.55;48.48;99029.38;8253751;28;20238;-82
2021/11/23 05:50:21;;;;;;;7.43;5.97;;;;;;;4.57;48.59;99035.38;8253881;28;20245;-82
2021/11/23 05:54:25;;;;;;;10.37;7.27;;;;;;;4.52;48.58;99050.78;8253358;28;20241;-83
2021/11/23 05:58:29;;;;;;;8.20;6.70;;;;;;;4.61;48.41;99050.75;8253661;28;20400;-83
2021/11/23 06:02:32;;;;;;;6.57;5.93;;;;;;;4.62;48.87;99049.88;8253313;28;20264;-83
2021/11/23 06:06:36;;;;;;;7.23;6.20;;;;;;;4.45;48.75;99054.22;8239468;28;20265;-83
2021/11/23 06:10:40;;;;;;;11.50;6.67;;;;;;;4.49;48.49;99055.91;8245555;28;20242;-83
2021/11/23 06:14:44;;;;;;;9.73;6.77;;;;;;;4.53;48.43;99057.59;8244040;28;20238;-84
2021/11/23 06:18:47;;;;;;;7.73;6.80;;;;;;;4.54;48.65;99073.88;8227573;28;20564;-84
2021/11/23 06:22:53;;;;;;;7.10;6.40;;;;;;;4.58;48.35;99075.56;8220902;28;20235;-83
2021/11/23 06:26:57;;;;;;;6.90;6.20;;;;;;;4.45;48.67;99077.31;8222768;28;20546;-84
2021/11/23 06:31:01;;;;;;;6.77;6.07;;;;;;;4.39;48.63;99085.00;8219366;28;20556;-82
2021/11/23 06:35:05;;;;;;;6.93;6.20;;;;;;;4.55;48.30;99089.28;8222497;28;20241;-83
2021/11/23 06:39:08;;;;;;;7.33;6.50;;;;;;;4.49;49.00;99100.41;8246274;28;20234;-85
2021/11/23 06:43:12;;;;;;;6.43;5.73;;;;;;;4.49;49.07;99108.09;8251947;28;20234;-85
2021/11/23 06:47:16;;;;;;;10.10;6.90;;;;;;;4.54;48.77;99110.63;8251908;28;20238;-86
2021/11/23 06:51:19;;;;;;;9.07;7.03;;;;;;;4.43;48.84;99117.50;8252004;28;20241;-85
2021/11/23 06:55:22;;;;;;;10.70;7.50;;;;;;;4.39;48.92;99121.78;8251961;28;20234;-85
2021/11/23 06:59:26;;;;;;;10.27;7.30;;;;;;;4.33;48.57;99123.50;8251852;28;20234;-85
2021/11/23 07:03:29;;;;;;;14.80;7.70;;;;;;;4.35;48.68;99122.63;8251734;28;20226;-85
2021/11/23 07:07:32;;;;;;;11.77;9.40;;;;;;;4.41;48.44;99119.22;8251528;28;20240;-85
2021/11/23 07:11:35;;;;;;;14.83;9.30;;;;;;;4.40;48.46;99117.47;8251471;28;20250;-85
2021/11/23 07:15:40;;;;;;;11.30;8.97;;;;;;;4.29;48.75;99122.66;8251365;28;20436;-85
2021/11/23 07:19:43;;;;;;;11.43;7.90;;;;;;;4.42;48.89;99110.66;8251065;28;20260;-84
2021/11/23 07:23:46;;;;;;;10.57;7.97;;;;;;;4.56;48.47;99105.50;8251254;28;20230;-84
2021/11/23 07:27:49;;;;;;;13.27;8.00;;;;;;;4.55;48.35;99114.94;8251322;28;20245;-83
2021/11/23 07:31:53;;;;;;;13.27;8.40;;;;;;;4.61;48.42;99112.34;8254350;28;20250;-84
2021/11/23 07:35:57;;;;;;;13.13;8.70;;;;;;;4.61;48.54;99112.34;8250281;28;20544;-84
2021/11/23 07:40:00;;;;;;;14.00;8.50;;;;;;;4.92;48.00;99121.69;8250750;28;20238;-84
2021/11/23 07:44:05;;;;;;;10.77;8.40;;;;;;;6.74;44.56;99113.59;8251009;28;20233;-84
2021/11/23 07:48:11;;;;;;;9.47;8.10;;;;;;;7.76;42.63;99123.50;8243069;28;20272;-86
2021/11/23 07:52:16;;;;;;;10.77;8.33;;;;;;;8.40;41.60;99119.06;8250516;28;20305;-84
2021/11/23 07:56:20;;;;;;;12.77;9.23;;;;;;;8.89;41.14;99125.09;8250612;28;20234;-85
2021/11/23 08:00:25;;;;;;;14.67;9.27;;;;;;;9.82;39.14;99116.28;8250206;28;20238;-83
2021/11/23 08:04:30;;;;;;;9.60;8.60;;;;;;;9.94;38.99;99118.59;8250031;28;20242;-83
2021/11/23 08:08:33;;;;;;;12.80;7.97;;;;;;;10.32;38.37;99122.88;8248729;28;20249;-82
2021/11/23 08:12:37;;;;;;;9.00;8.10;;;;;;;10.39;38.44;99127.91;8249727;28;20244;-83
2021/11/23 08:16:40;;;;;;;8.53;7.30;;;;;;;10.51;37.62;99109.47;8250023;28;20402;-83
2021/11/23 08:20:47;;;;;;;9.43;7.10;;;;;;;10.63;38.41;99116.06;8250008;28;20253;-81
2021/11/23 08:24:50;;;;;;;7.63;6.90;;;;;;;10.46;39.38;99121.69;8250046;28;20458;-81
2021/11/23 08:28:53;;;;;;;8.27;6.50;;;;;;;9.91;40.22;99136.78;8249789;28;20553;-81
2021/11/23 08:32:56;;;;;;;8.77;7.17;;;;;;;9.45;41.71;99128.28;8249763;28;20234;-83
2021/11/23 08:37:01;;;;;;;10.40;7.87;;;;;;;8.57;43.04;99134.31;8249405;28;20548;-86
2021/11/23 08:41:04;;;;;;;10.33;7.30;;;;;;;8.11;43.49;99120.41;8241382;28;20250;-83
2021/11/23 08:45:10;;;;;;;8.90;8.00;;;;;;;8.27;43.79;99135.66;8232553;28;20270;-84
2021/11/23 08:49:14;;;;;;;8.77;7.63;;;;;;;8.28;44.23;99134.75;8222080;28;20243;-83
2021/11/23 08:53:19;;;;;;;9.43;8.00;;;;;;;8.38;45.00;99139.75;8223487;28;20245;-84
2021/11/23 08:57:22;;;;;;;7.67;5.77;;;;;;;11.10;49.64;99129.47;8223563;28;20239;-86
2021/11/23 09:01:27;;;;;;;8.87;5.67;;;;;;;11.59;42.25;99128.03;8235217;28;20238;-85
2021/11/23 09:05:32;;;;;;;7.30;5.83;;;;;;;11.91;39.95;99134.03;8290481;28;20233;-86
2021/11/23 09:09:38;;;;;;;9.13;6.10;;;;;;;12.19;40.93;99136.59;8289664;28;20315;-83
2021/11/23 09:13:45;;;;;;;8.27;5.80;;;;;;;12.43;40.57;99141.88;8289706;28;20508;-85
2021/11/23 09:17:49;;;;;;;9.53;8.27;;;;;;;11.66;38.10;99134.75;8290388;28;20244;-84
2021/11/23 09:21:52;;;;;;;10.27;7.83;;;;;;;10.11;41.58;99144.94;8287074;28;20528;-85
2021/11/23 09:25:57;;;;;;;9.87;8.87;;;;;;;9.91;42.16;99139.34;8287695;28;20234;-85
2021/11/23 09:30:00;;;;;;;8.77;7.87;;;;;;;9.60;41.68;99140.03;8287047;28;20233;-85
2021/11/23 09:34:03;;;;;;;12.13;8.43;;;;;;;9.72;42.40;99144.09;8253538;28;20521;-84
2021/11/23 09:38:06;;;;;;;9.87;7.50;;;;;;;9.68;41.56;99142.47;8254079;28;20241;-85
2021/11/23 09:42:11;;;;;;;13.13;8.07;;;;;;;9.66;43.57;99154.59;8202427;28;20428;-85
2021/11/23 09:46:14;;;;;;;11.00;8.47;;;;;;;9.81;43.20;99154.25;8192151;28;20238;-85
2021/11/23 09:50:18;;;;;;;14.20;8.20;;;;;;;9.75;43.34;99151.78;8192597;28;20239;-85
2021/11/23 09:54:21;;;;;;;11.90;10.53;;;;;;;9.78;43.32;99151.72;8189817;28;20424;-85
2021/11/23 09:58:28;;;;;;;13.30;10.40;;;;;;;9.90;43.70;99141.09;8187721;28;20238;-85
2021/11/23 10:02:33;;;;;;;12.90;9.53;;;;;;;10.04;43.16;99134.75;8193667;28;20259;-85
2021/11/23 10:06:53;;;;;;;9.47;8.50;;;;;;;9.95;43.28;99131.47;8192790;28;20537;-85
2021/11/23 10:10:58;;;;;;;10.63;7.83;;;;;;;9.92;42.61;99133.31;8196041;28;20435;-85
2021/11/23 10:15:25;;;;;;;9.90;7.97;;;;;;;10.39;42.46;99127.91;8194483;28;20255;-85
2021/11/23 10:19:37;;;;;;;11.80;8.53;;;;;;;10.29;42.62;99128.09;8202833;28;20533;-85
2021/11/23 10:23:43;;;;;;;14.60;7.73;;;;;;;10.30;41.77;99128.94;8195442;28;20423;-85
2021/11/23 10:27:47;;;;;;;11.03;8.17;;;;;;;10.39;41.61;99120.97;8194797;28;20235;-85
2021/11/23 10:31:52;;;;;;;9.87;8.27;;;;;;;10.42;41.75;99120.06;8192832;28;20235;-85
2021/11/23 10:35:58;;;;;;;11.50;8.20;;;;;;;10.44;41.78;99110.50;8193087;28;20231;-85
2021/11/23 10:40:13;;;;;;;9.73;7.73;;;;;;;10.17;41.94;99131.00;8203446;28;20245;-85
2021/11/23 10:44:17;;;;;;;8.00;7.20;;;;;;;10.65;42.17;99122.06;8250370;28;20230;-85
2021/11/23 10:48:24;;;;;;;9.43;7.73;;;;;;;10.71;42.17;99111.53;8255823;28;20233;-85
2021/11/23 10:52:29;;;;;;;8.27;7.40;;;;;;;10.53;41.77;99105.09;8257221;28;20537;-85
2021/11/23 10:56:32;;;;;;;8.37;7.43;;;;;;;10.30;41.93;99101.34;8256512;28;20226;-84
2021/11/23 11:00:38;;;;;;;7.37;6.67;;;;;;;10.40;42.39;99099.38;8255275;28;20241;-85
2021/11/23 11:04:44;;;;;;;7.47;6.00;;;;;;;10.24;42.46;99104.03;8256063;28;20575;-84
2021/11/23 11:08:48;;;;;;;6.30;5.53;;;;;;;9.90;41.21;99110.06;8255227;28;20572;-84
2021/11/23 11:12:52;;;;;;;6.67;5.20;;;;;;;10.08;41.11;99107.91;8255891;28;20250;-85
2021/11/23 11:16:56;;;;;;;7.90;5.33;;;;;;;10.13;40.42;99083.63;8255267;28;20238;-85
2021/11/23 11:21:03;;;;;;;5.17;4.47;;;;;;;10.10;40.70;99101.78;8254582;28;20301;-84
2021/11/23 11:25:12;;;;;;;6.90;5.67;;;;;;;10.10;42.14;99094.03;8246454;28;20426;-84
2021/11/23 11:29:27;;;;;;;7.03;5.67;;;;;;;10.04;43.48;99080.41;8255699;28;20257;-84
2021/11/23 11:33:32;;;;;;;6.73;5.10;;;;;;;10.22;43.03;99087.69;8234511;28;20230;-85
2021/11/23 11:37:36;;;;;;;8.93;5.60;;;;;;;10.37;43.27;99076.97;8219003;28;20573;-85
2021/11/23 11:41:41;;;;;;;8.73;6.83;;;;;;;10.45;43.69;99074.22;8218953;28;20246;-84
2021/11/23 11:45:46;;;;;;;7.37;5.20;;;;;;;10.39;43.00;99064.00;8219382;28;20234;-85
2021/11/23 11:49:52;;;;;;;5.37;4.87;;;;;;;10.40;42.36;99070.88;8219374;28;20284;-85
2021/11/23 11:53:59;;;;;;;5.43;4.77;;;;;;;10.54;41.77;99070.53;8219208;28;20234;-85
2021/11/23 11:58:04;;;;;;;8.67;5.43;;;;;;;10.57;42.62;99058.34;8218886;28;20235;-84
2021/11/23 12:06:25;;;;;;;6.67;4.50;;;;;;;10.50;41.45;99056.81;8221012;28;20249;-84
2021/11/23 12:10:33;;;;;;;5.47;4.40;;;;;;;10.34;42.25;99073.66;8221910;28;20234;-84
2021/11/23 12:14:38;;;;;;;6.50;4.90;;;;;;;10.43;42.42;99065.63;8220620;28;20231;-84
2021/11/23 12:19:05;;;;;;;5.87;4.63;;;;;;;10.72;41.33;99067.44;8203804;28;20235;-84
2021/11/23 12:23:29;;;;;;;37.73;6.00;;;;;;;11.06;43.78;99068.22;8241948;28;20231;-83
2021/11/23 12:27:36;;;;;;;5.07;4.43;;;;;;;10.62;41.37;99062.53;8257558;28;20615;-83
2021/11/23 12:31:46;;;;;;;4.93;4.27;;;;;;;10.83;39.99;99054.16;8256796;28;20393;-84
2021/11/23 12:35:50;;;;;;;4.50;4.00;;;;;;;10.89;40.08;99055.75;8256540;28;20241;-84
2021/11/23 12:39:55;;;;;;;3.40;2.60;;;;;;;10.86;38.57;99045.47;8256005;28;20289;-84
2021/11/23 12:44:00;;;;;;;4.17;3.27;;;;;;;10.57;38.84;99039.38;8255823;28;20245;-84
2021/11/23 12:48:05;;;;;;;4.27;2.80;;;;;;;10.95;38.50;99037.44;8247479;28;20229;-83
2021/11/23 12:52:10;;;;;;;3.90;2.30;;;;;;;11.03;37.41;99032.88;8255363;28;20267;-83
2021/11/23 12:56:14;;;;;;;4.13;2.97;;;;;;;11.08;37.30;99031.00;8255137;28;20229;-84
2021/11/23 13:00:19;;;;;;;3.77;2.30;;;;;;;11.18;36.38;99022.97;8255004;28;20234;-84
2021/11/23 13:04:36;;;;;;;2.37;1.90;;;;;;;11.37;34.45;99012.88;8254896;28;20533;-85
2021/11/23 13:08:39;;;;;;;2.33;1.80;;;;;;;11.45;35.32;99000.53;8255220;28;20243;-85
2021/11/23 13:12:45;;;;;;;2.83;1.87;;;;;;;11.67;34.71;98998.94;8255050;28;20238;-84
2021/11/23 13:16:53;;;;;;;1.87;1.57;;;;;;;11.65;34.03;99005.94;8255053;28;20246;-85
2021/11/23 13:20:58;;;;;;;3.77;1.60;;;;;;;11.73;33.38;98998.75;8255005;28;20297;-85
2021/11/23 13:25:01;;;;;;;2.50;1.40;;;;;;;12.00;33.66;98998.75;8255053;28;20553;-87
2021/11/23 13:29:05;;;;;;;3.43;1.30;;;;;;;11.76;34.59;98996.94;8254147;28;20234;-84
2021/11/23 13:33:15;;;;;;;4.30;1.10;;;;;;;11.86;34.01;99000.91;8253306;28;20238;-85
2021/11/23 13:37:18;;;;;;;2.50;1.20;;;;;;;11.65;33.51;99002.47;8253887;28;20234;-87
2021/11/23 13:41:24;;;;;;;1.07;0.97;;;;;;;11.88;33.41;98996.53;8233359;28;20297;-87
2021/11/23 13:45:27;;;;;;;2.00;0.80;;;;;;;11.81;33.05;98997.66;8223651;28;20238;-85
2021/11/23 13:49:34;;;;;;;3.27;1.10;;;;;;;11.89;33.73;98998.22;8253064;28;20507;-85
2021/11/23 13:54:06;;;;;;;2.83;1.10;;;;;;;11.89;32.38;99008.63;8253507;28;20244;-85
2021/11/23 13:58:11;;;;;;;2.57;1.00;;;;;;;11.77;33.48;99007.28;8221391;28;20222;-84
2021/11/23 14:02:14;;;;;;;2.20;1.20;;;;;;;11.53;34.28;99006.31;8223440;28;20246;-85
2021/11/23 14:06:20;;;;;;;3.17;1.30;;;;;;;11.27;34.51;99000.19;8224949;28;20315;-84
2021/11/23 14:10:27;;;;;;;2.43;1.10;;;;;;;11.07;35.31;99007.72;8224918;28;20248;-84
2021/11/23 14:14:30;;;;;;;3.13;1.50;;;;;;;11.15;35.74;99016.09;8224786;28;20240;-85
2021/11/23 14:18:34;;;;;;;2.97;1.30;;;;;;;11.26;36.80;99010.63;8225358;28;20550;-85
2021/11/23 14:22:42;;;;;;;4.20;1.77;;;;;;;11.16;36.57;99012.63;8224867;28;20249;-86
2021/11/23 14:26:47;;;;;;;4.53;1.60;;;;;;;11.24;36.23;98997.69;8225394;28;20234;-85
2021/11/23 14:30:50;;;;;;;3.03;1.67;;;;;;;11.22;36.34;99001.22;8225826;28;20249;-85
2021/11/23 14:34:53;;;;;;;4.07;1.60;;;;;;;11.09;37.24;99001.59;8224598;28;20241;-86
2021/11/23 14:39:00;;;;;;;3.53;1.63;;;;;;;10.87;37.40;99003.97;8239767;28;20234;-88
2021/11/23 14:43:03;;;;;;;2.17;1.50;;;;;;;10.71;38.70;99002.72;8220388;28;20226;-85
2021/11/23 14:47:06;;;;;;;2.33;1.53;;;;;;;10.70;38.24;99007.06;8223505;28;20231;-85
2021/11/23 14:51:10;;;;;;;2.80;1.70;;;;;;;10.48;38.85;98996.44;8223195;28;20227;-85
2021/11/23 14:55:15;;;;;;;3.10;1.63;;;;;;;10.26;39.61;98997.84;8223546;28;20322;-87
2021/11/23 14:59:18;;;;;;;4.87;2.10;;;;;;;10.08;39.71;99013.00;8224298;28;20298;-85
2021/11/23 15:03:21;;;;;;;3.17;1.70;;;;;;;10.00;39.76;99008.91;8223415;28;20243;-86
2021/11/23 15:07:25;;;;;;;5.40;2.07;;;;;;;9.83;40.48;99005.00;8222817;28;20413;-84
2021/11/23 15:11:30;;;;;;;4.37;2.43;;;;;;;9.74;40.48;99006.06;8222829;28;20258;-84
2021/11/23 15:15:33;;;;;;;4.87;3.40;;;;;;;9.67;41.92;99009.72;8223483;28;20226;-84
2021/11/23 15:19:37;;;;;;;8.60;4.07;;;;;;;9.49;41.53;99013.56;8224339;28;20445;-84
2021/11/23 15:23:40;;;;;;;4.93;2.77;;;;;;;9.48;41.74;99014.47;8223569;28;20246;-85
2021/11/23 15:27:45;;;;;;;5.03;2.60;;;;;;;9.29;42.06;99011.44;8221770;28;20235;-85
2021/11/23 15:31:48;;;;;;;3.87;2.23;;;;;;;9.32;42.29;99013.09;8222822;28;20230;-85
2021/11/23 15:35:52;;;;;;;8.50;2.63;;;;;;;9.18;42.72;99021.16;8222545;28;20231;-86
2021/11/23 15:39:55;;;;;;;12.30;7.07;;;;;;;9.07;42.99;99015.38;8222780;28;20233;-85
2021/11/23 15:44:02;;;;;;;7.80;5.70;;;;;;;8.88;43.78;99020.09;8221844;28;20258;-85
2021/11/23 15:48:05;;;;;;;7.40;4.50;;;;;;;8.79;43.86;99019.38;8246925;28;20227;-85
2021/11/23 15:52:09;;;;;;;15.60;5.20;;;;;;;8.60;44.02;99012.88;8237531;28;20252;-85
2021/11/23 15:56:14;;;;;;;8.03;3.80;;;;;;;8.58;44.03;99015.47;8243267;28;20227;-85
2021/11/23 16:00:19;;;;;;;7.73;4.30;;;;;;;8.51;44.55;99010.47;8254640;28;20226;-85
2021/11/23 16:04:25;;;;;;;14.00;7.93;;;;;;;8.44;44.85;99007.16;8254917;28;20305;-86
2021/11/23 16:08:29;;;;;;;19.30;11.00;;;;;;;8.35;44.84;99008.16;8255832;28;20253;-86
2021/11/23 16:12:32;;;;;;;7.63;3.77;;;;;;;8.30;44.71;99014.28;8248017;28;20234;-84
2021/11/23 16:16:37;;;;;;;7.47;3.10;;;;;;;8.22;45.10;99027.31;8221731;28;20249;-85
2021/11/23 16:20:41;;;;;;;3.97;2.90;;;;;;;8.18;45.37;99020.53;8224017;28;20246;-85
2021/11/23 16:24:44;;;;;;;4.90;2.37;;;;;;;8.17;45.42;99017.09;8231584;28;20244;-85
2021/11/23 16:28:47;;;;;;;3.33;2.00;;;;;;;8.13;45.58;99019.72;8254714;28;20241;-84
2021/11/23 16:32:52;;;;;;;8.03;2.60;;;;;;;7.89;45.60;99006.41;8255702;28;20249;-85
2021/11/23 16:36:58;;;;;;;8.60;2.97;;;;;;;7.96;45.47;99015.75;8253685;28;20540;-85
2021/11/23 16:41:01;;;;;;;7.00;4.10;;;;;;;7.90;45.62;99020.13;8251679;28;20529;-85
2021/11/23 16:45:05;;;;;;;5.40;2.80;;;;;;;7.90;45.75;99002.09;8229471;28;20454;-85
2021/11/23 16:49:11;;;;;;;6.53;2.40;;;;;;;7.79;45.97;99010.00;8252400;28;20258;-84
2021/11/23 16:53:15;;;;;;;2.97;2.40;;;;;;;7.63;46.35;99009.38;8252200;28;20245;-84
2021/11/23 16:57:18;;;;;;;18.13;11.60;;;;;;;7.54;46.29;99010.41;8242787;28;20233;-83
2021/11/23 17:01:21;;;;;;;30.87;18.73;;;;;;;7.57;46.18;99010.34;8266700;28;20420;-84
2021/11/23 17:05:25;;;;;;;23.90;12.97;;;;;;;7.54;46.13;99015.56;8270666;28;20241;-84
2021/11/23 17:09:33;;;;;;;17.37;9.70;;;;;;;7.38;46.91;99011.50;8270694;28;20253;-85
2021/11/23 17:13:36;;;;;;;16.40;10.97;;;;;;;7.44;46.79;99014.84;8274892;28;20245;-84
2021/11/23 17:17:39;;;;;;;99.50;58.83;;;;;;;7.39;46.61;99011.47;8276307;28;20225;-85
2021/11/23 17:21:44;;;;;;;79.90;50.57;;;;;;;7.28;46.88;99017.66;8274580;28;20226;-85
2021/11/23 17:25:49;;;;;;;40.60;30.50;;;;;;;7.20;46.93;99017.78;8266550;28;20285;-83
2021/11/23 17:29:52;;;;;;;34.97;24.87;;;;;;;7.18;47.15;99025.53;8274862;28;20240;-82
2021/11/23 17:33:56;;;;;;;23.03;18.40;;;;;;;7.17;47.11;99025.53;8271621;28;20225;-85
2021/11/23 17:38:02;;;;;;;21.37;15.13;;;;;;;7.17;46.98;99031.53;8271738;28;20321;-85
2021/11/23 17:42:07;;;;;;;19.00;13.30;;;;;;;7.14;47.01;99028.16;8233358;28;20232;-85
2021/11/23 17:46:14;;;;;;;19.90;12.03;;;;;;;7.06;47.41;99020.53;8273310;28;20358;-85
2021/11/23 17:50:20;;;;;;;18.27;10.83;;;;;;;7.04;47.43;99025.72;8270814;28;20233;-83
2021/11/23 17:54:25;;;;;;;20.77;13.63;;;;;;;6.97;47.50;99029.25;8269104;28;20316;-84
2021/11/23 17:58:29;;;;;;;11.77;9.07;;;;;;;7.09;47.25;99041.09;8268802;28;20234;-83
2021/11/23 18:02:32;;;;;;;15.07;11.60;;;;;;;6.92;47.45;99022.44;8268646;28;20280;-82
2021/11/23 18:06:36;;;;;;;15.83;10.73;;;;;;;6.89;47.72;99038.75;8263583;28;20230;-83
2021/11/23 18:10:41;;;;;;;15.83;12.70;;;;;;;6.87;47.41;99037.09;8271809;28;20237;-84
2021/11/23 18:14:45;;;;;;;14.33;12.73;;;;;;;6.92;47.36;99027.59;8284347;28;20244;-86
2021/11/23 18:18:49;;;;;;;12.07;9.90;;;;;;;6.88;47.52;99036.22;8235513;28;20239;-84
2021/11/23 18:22:52;;;;;;;17.47;13.23;;;;;;;6.81;48.00;99017.41;8214577;28;20243;-85
2021/11/23 18:26:57;;;;;;;14.10;12.53;;;;;;;6.83;48.05;99023.41;8220756;28;20227;-85
2021/11/23 18:31:01;;;;;;;13.37;9.93;;;;;;;6.89;47.75;99015.59;8222295;28;20231;-85
2021/11/23 18:35:05;;;;;;;13.77;11.13;;;;;;;6.75;47.98;99004.63;8206429;28;20222;-84
2021/11/23 18:39:08;;;;;;;20.57;16.07;;;;;;;6.68;48.14;99008.13;8221726;28;20409;-84
2021/11/23 18:43:22;;;;;;;18.47;14.20;;;;;;;6.60;48.19;99009.06;8219481;28;20238;-84
2021/11/23 18:47:28;;;;;;;15.17;12.40;;;;;;;6.60;48.10;99001.34;8220510;28;20342;-85
2021/11/23 18:51:31;;;;;;;26.87;18.10;;;;;;;6.60;48.11;99003.91;8220399;28;20302;-85
2021/11/23 18:55:35;;;;;;;28.20;19.17;;;;;;;6.62;48.18;99009.06;8219151;28;20538;-85
2021/11/23 18:59:40;;;;;;;29.47;18.53;;;;;;;6.54;48.24;99001.44;8219364;28;20420;-85
2021/11/23 19:03:43;;;;;;;22.17;11.97;;;;;;;8.90;63.76;99011.41;8219679;28;20234;-86
2021/11/23 19:07:47;;;;;;;22.40;15.30;;;;;;;9.77;51.79;99010.34;8220127;28;20243;-85
2021/11/23 19:11:51;;;;;;;19.93;13.73;;;;;;;7.98;45.04;99013.13;8220461;28;20253;-84
2021/11/23 19:15:58;;;;;;;16.27;12.37;;;;;;;7.53;45.69;99018.16;8219328;28;20238;-84
2021/11/23 19:20:01;;;;;;;15.87;12.93;;;;;;;7.33;45.99;99011.56;8219628;28;20231;-84